Grand Strand Airport
KCRE : rendu visible

Aérodrome :











RETROUVEZ-NOUS SUR...

 
LOGIN :

S'inscrire | Disclaimer

   EN    FR    IT 

 









Légende :    VFR   VFR Marginal   IFR   IFR Intensif   IFR Très Intensif
Visi : 
Plafond : 
>= 8 km
>= 3000ft
5 à 8 km
1000 à 3000 ft
1500m à 5 km
500 à 1000 ft
800 à 1500m
200 à 500 ft
< 800m
< 200 ft
Symboles :   Orages  Brouillard  Fortes neiges  Fortes précipitations  Vent > 20 kt






- Altitude de l'aérodrome : 32 ft


KCRE - Grand Strand

DERNIER METAR :
  • 072153Z 04007KT 10SM CLR 14/07 A3028 RMK AO1 SLP255 T01390067

METARs EXPIRÉS :
  • 072053Z 04007KT 10SM CLR 16/07 A3027 RMK AO1 SLP249 T01610067 53010
  • 071953Z 04009KT 10SM CLR 17/06 A3025 RMK AO1 SLP245 T01720061

TAF KCRE
Valide du 07 à 18h jusqu'au 08 à 18h UTC


071720Z 0718/0818 03011KT P6SM SKC
FM080000 03009KT P6SM SKC



MET'MAP, la Météo Aéronautique d'un coup d'oeil ! - Copyright ORBIFLY Décembre 2007 - Disclaimer

ORBIFLY MET'MAP TEAM :

Programmation & Développement : Alexandra Zaïnal
Sur une idée originale de : Baudouin d'Aumeries
Assistance à la programmation : Marc-Olivier Méhu
Soutien technique & logistique : Manuel Goepfert

Contact : metmap@orbifly.com




SOURCES & CREDITS :

   NOAA       Earth
Advisory